createdAt,value
2018-12-16T00:02:01.733Z,14.30
2018-12-16T00:04:30.094Z,11.83
2018-12-16T00:06:58.366Z,12.97
2018-12-16T00:09:27.034Z,12.50
2018-12-16T00:11:55.479Z,14.63
2018-12-16T00:14:23.686Z,16.73
2018-12-16T00:16:52.202Z,9.43
2018-12-16T00:19:20.513Z,12.73
2018-12-16T00:21:48.735Z,12.70
2018-12-16T00:24:17.320Z,13.33
2018-12-16T00:26:56.886Z,13.30
2018-12-16T00:29:25.197Z,15.93
2018-12-16T00:31:53.389Z,13.27
2018-12-16T00:34:21.598Z,15.97
2018-12-16T00:36:49.786Z,14.07
2018-12-16T00:39:18.134Z,10.53
2018-12-16T00:41:46.454Z,12.87
2018-12-16T00:44:15.008Z,10.27
2018-12-16T00:46:43.198Z,11.07
2018-12-16T00:49:11.663Z,12.50
2018-12-16T00:51:39.889Z,11.70
2018-12-16T00:54:08.178Z,15.83
2018-12-16T00:56:36.454Z,12.37
2018-12-16T00:59:04.681Z,10.23
2018-12-16T01:01:33.003Z,12.17
2018-12-16T01:04:01.202Z,12.50
2018-12-16T01:06:29.486Z,16.90
2018-12-16T01:08:57.797Z,14.77
2018-12-16T01:11:26.134Z,12.23
2018-12-16T01:13:54.371Z,19.40
2018-12-16T01:16:22.674Z,17.87
2018-12-16T01:18:50.985Z,15.20
2018-12-16T01:21:19.319Z,18.73
2018-12-16T01:23:47.874Z,20.00
2018-12-16T01:26:16.115Z,15.07
2018-12-16T01:28:44.345Z,18.40
2018-12-16T01:31:12.585Z,11.70
2018-12-16T01:33:40.902Z,17.27
2018-12-16T01:36:09.202Z,15.77
2018-12-16T01:38:37.459Z,12.97
2018-12-16T01:41:06.143Z,15.73
2018-12-16T01:43:34.494Z,13.43
2018-12-16T01:46:03.502Z,14.43
2018-12-16T01:48:32.958Z,13.03
2018-12-16T01:51:02.305Z,9.83
2018-12-16T01:53:30.646Z,12.73
2018-12-16T01:55:58.887Z,8.97
2018-12-16T01:58:27.147Z,10.47
2018-12-16T02:00:55.355Z,7.60
2018-12-16T02:03:23.566Z,13.57
2018-12-16T02:05:51.765Z,7.03
2018-12-16T02:08:20.036Z,10.37
2018-12-16T02:10:48.338Z,8.87
2018-12-16T02:13:16.645Z,10.27
2018-12-16T02:15:44.810Z,9.27
2018-12-16T02:18:13.004Z,9.53
2018-12-16T02:20:41.395Z,11.83
2018-12-16T02:23:09.566Z,12.30
2018-12-16T02:25:37.762Z,11.30
2018-12-16T02:28:07.407Z,10.93
2018-12-16T02:30:36.103Z,10.83
2018-12-16T02:33:04.738Z,13.07
2018-12-16T02:35:32.954Z,8.83
2018-12-16T02:38:01.130Z,10.23
2018-12-16T02:40:29.499Z,10.13
2018-12-16T02:42:57.782Z,9.83
2018-12-16T02:45:25.987Z,10.77
2018-12-16T02:47:54.253Z,9.80
2018-12-16T02:50:22.583Z,13.03
2018-12-16T02:52:50.855Z,9.23
2018-12-16T02:55:19.149Z,11.23
2018-12-16T02:57:47.341Z,10.60
2018-12-16T03:00:15.623Z,11.47
2018-12-16T03:03:46.822Z,8.27
2018-12-16T03:06:15.003Z,9.40
2018-12-16T03:09:46.703Z,11.00
2018-12-16T03:12:14.979Z,7.40
2018-12-16T03:14:43.180Z,7.57
2018-12-16T03:17:11.358Z,6.80
2018-12-16T03:19:39.564Z,11.63
2018-12-16T03:22:07.913Z,12.37
2018-12-16T03:24:36.122Z,7.70
2018-12-16T03:27:04.303Z,13.67
2018-12-16T03:29:32.488Z,9.43
2018-12-16T03:32:00.669Z,13.53
2018-12-16T03:34:28.887Z,12.03
2018-12-16T03:36:57.316Z,16.60
2018-12-16T03:39:25.495Z,14.83
2018-12-16T03:41:53.671Z,11.33
2018-12-16T03:44:21.877Z,17.50
2018-12-16T03:46:50.069Z,16.77
2018-12-16T03:49:18.494Z,12.63
2018-12-16T03:51:46.680Z,16.37
2018-12-16T03:54:14.976Z,14.77
2018-12-16T03:56:43.222Z,11.27
2018-12-16T03:59:18.397Z,11.90
2018-12-16T04:01:52.118Z,14.57
2018-12-16T04:04:20.320Z,10.73
2018-12-16T04:06:48.536Z,13.90
2018-12-16T04:09:16.835Z,10.70
2018-12-16T04:11:45.112Z,11.17
2018-12-16T04:14:13.554Z,8.27
2018-12-16T04:16:41.912Z,11.77
2018-12-16T04:19:10.112Z,8.50
2018-12-16T04:21:38.664Z,7.60
2018-12-16T04:24:06.871Z,7.00
2018-12-16T04:26:35.227Z,11.50
2018-12-16T04:29:03.522Z,15.07
2018-12-16T04:31:31.713Z,13.33
2018-12-16T04:33:59.894Z,13.40
2018-12-16T04:36:28.115Z,15.80
2018-12-16T04:38:56.295Z,15.73
2018-12-16T04:42:27.838Z,16.53
2018-12-16T04:44:56.043Z,16.00
2018-12-16T04:47:24.247Z,17.03
2018-12-16T04:49:52.455Z,12.17
2018-12-16T04:52:20.669Z,12.70
2018-12-16T04:54:48.877Z,12.97
2018-12-16T04:57:17.127Z,14.53
2018-12-16T04:59:45.331Z,16.23
2018-12-16T05:02:13.502Z,12.10
2018-12-16T05:04:41.922Z,15.53
2018-12-16T05:07:10.094Z,11.43
2018-12-16T05:09:38.388Z,11.33
2018-12-16T05:12:06.564Z,13.23
2018-12-16T05:14:34.770Z,14.10
2018-12-16T05:17:03.039Z,13.07
2018-12-16T05:19:32.295Z,11.03
2018-12-16T05:22:00.483Z,12.33
2018-12-16T05:24:28.749Z,14.60
2018-12-16T05:26:56.984Z,13.30
2018-12-16T05:29:25.285Z,9.20
2018-12-16T05:31:53.463Z,12.93
2018-12-16T05:34:21.655Z,11.07
2018-12-16T05:36:49.826Z,11.93
2018-12-16T05:39:18.007Z,13.23
2018-12-16T05:41:46.210Z,13.00
2018-12-16T05:44:45.433Z,10.57
2018-12-16T05:47:13.610Z,6.83
2018-12-16T05:49:41.895Z,11.73
2018-12-16T05:52:10.073Z,9.40
2018-12-16T05:54:38.284Z,10.70
2018-12-16T05:57:06.558Z,9.37
2018-12-16T05:59:34.734Z,7.80
2018-12-16T06:02:02.918Z,12.17
2018-12-16T06:04:31.129Z,13.33
2018-12-16T06:06:59.302Z,12.80
2018-12-16T06:09:27.501Z,15.70
2018-12-16T06:11:55.718Z,15.07
2018-12-16T06:14:23.915Z,10.53
2018-12-16T06:16:52.120Z,9.60
2018-12-16T06:19:20.303Z,10.07
2018-12-16T06:21:48.502Z,11.07
2018-12-16T06:24:16.844Z,10.77
2018-12-16T06:26:45.144Z,13.13
2018-12-16T06:29:13.330Z,11.20
2018-12-16T06:31:41.530Z,14.10
2018-12-16T06:34:09.714Z,13.00
2018-12-16T06:36:37.915Z,12.57
2018-12-16T06:39:07.267Z,14.80
2018-12-16T06:41:35.495Z,12.80
2018-12-16T06:44:03.858Z,11.63
2018-12-16T06:46:32.071Z,10.23
2018-12-16T06:49:00.250Z,7.77
2018-12-16T06:51:28.453Z,7.97
2018-12-16T06:54:02.459Z,6.67
2018-12-16T06:56:26.823Z,11.00
2018-12-16T06:58:56.044Z,13.87
2018-12-16T07:01:24.339Z,9.83
2018-12-16T07:03:52.651Z,9.03
2018-12-16T07:06:20.841Z,10.07
2018-12-16T07:08:49.040Z,9.50
2018-12-16T07:11:17.241Z,10.67
2018-12-16T07:13:45.486Z,11.57
2018-12-16T07:16:13.703Z,12.13
2018-12-16T07:18:41.924Z,13.07
2018-12-16T07:21:10.211Z,13.37
2018-12-16T07:23:38.592Z,13.30
2018-12-16T07:26:07.060Z,13.63
2018-12-16T07:28:35.254Z,12.40
2018-12-16T07:31:03.537Z,12.10
2018-12-16T07:33:31.744Z,14.07
2018-12-16T07:36:02.153Z,11.60
2018-12-16T07:38:30.329Z,13.00
2018-12-16T07:40:58.618Z,12.37
2018-12-16T07:43:26.901Z,14.13
2018-12-16T07:45:55.229Z,13.67
2018-12-16T07:48:23.710Z,15.10
2018-12-16T07:50:51.989Z,10.77
2018-12-16T07:53:20.197Z,10.80
2018-12-16T07:55:48.409Z,14.60
2018-12-16T07:58:16.583Z,11.10
2018-12-16T08:00:44.908Z,16.50
2018-12-16T08:03:13.226Z,14.37
2018-12-16T08:05:41.518Z,10.87
2018-12-16T08:08:09.704Z,14.40
2018-12-16T08:10:37.908Z,12.77
2018-12-16T08:13:06.131Z,12.40
2018-12-16T08:15:34.326Z,11.30
2018-12-16T08:18:02.593Z,15.97
2018-12-16T08:20:30.824Z,15.10
2018-12-16T08:22:59.023Z,14.97
2018-12-16T08:25:27.325Z,14.20
2018-12-16T08:27:55.736Z,11.07
2018-12-16T08:30:24.074Z,14.93
2018-12-16T08:32:52.259Z,9.53
2018-12-16T08:35:20.771Z,19.07
2018-12-16T08:37:48.955Z,14.90
2018-12-16T08:40:17.155Z,16.13
2018-12-16T08:42:45.327Z,13.50
2018-12-16T08:45:13.519Z,10.90
2018-12-16T08:47:41.950Z,13.60
2018-12-16T08:50:10.920Z,12.67
2018-12-16T08:52:39.298Z,9.87
2018-12-16T08:55:08.230Z,8.70
2018-12-16T08:57:36.463Z,10.20
2018-12-16T09:00:04.954Z,15.97
2018-12-16T09:02:33.234Z,15.87
2018-12-16T09:05:01.422Z,11.50
2018-12-16T09:07:29.631Z,11.23
2018-12-16T09:09:57.814Z,12.23
2018-12-16T09:12:26.958Z,16.70
2018-12-16T09:14:55.177Z,19.87
2018-12-16T09:17:23.374Z,13.73
2018-12-16T09:19:51.844Z,17.43
2018-12-16T09:22:20.147Z,19.33
2018-12-16T09:24:48.339Z,13.73
2018-12-16T09:27:16.555Z,16.30
2018-12-16T09:29:44.823Z,16.50
2018-12-16T09:32:13.163Z,13.90
2018-12-16T09:34:41.397Z,12.60
2018-12-16T09:37:09.692Z,18.70
2018-12-16T09:39:38.213Z,13.93
2018-12-16T09:42:06.646Z,14.03
2018-12-16T09:44:35.628Z,16.70
2018-12-16T09:47:03.916Z,13.80
2018-12-16T09:49:32.147Z,12.13
2018-12-16T09:52:00.345Z,11.07
2018-12-16T09:54:28.638Z,14.90
2018-12-16T09:56:56.931Z,10.83
2018-12-16T09:59:25.158Z,14.17
2018-12-16T10:01:55.327Z,17.70
2018-12-16T10:04:25.184Z,9.40
2018-12-16T10:06:54.460Z,14.50
2018-12-16T10:09:24.897Z,15.00
2018-12-16T10:11:56.515Z,10.03
2018-12-16T10:14:26.083Z,12.20
2018-12-16T10:16:54.279Z,9.13
2018-12-16T10:19:22.487Z,10.40
2018-12-16T10:21:50.696Z,12.83
2018-12-16T10:24:19.779Z,10.13
2018-12-16T10:27:18.587Z,15.50
2018-12-16T10:29:48.031Z,10.40
2018-12-16T10:32:17.691Z,9.80
2018-12-16T10:34:46.645Z,8.83
2018-12-16T10:37:14.848Z,6.97
2018-12-16T10:39:43.548Z,10.43
2018-12-16T10:42:12.798Z,14.23
2018-12-16T10:44:44.431Z,10.20
2018-12-16T10:47:12.686Z,14.37
2018-12-16T10:49:40.900Z,8.63
2018-12-16T10:52:09.084Z,10.53
2018-12-16T10:54:37.303Z,11.00
2018-12-16T10:57:05.594Z,9.27
2018-12-16T10:59:33.803Z,6.30
2018-12-16T11:02:01.986Z,11.63
2018-12-16T11:04:30.191Z,11.30
2018-12-16T11:06:58.373Z,10.80
2018-12-16T11:09:26.646Z,8.80
2018-12-16T11:11:54.858Z,9.57
2018-12-16T11:14:23.079Z,14.57
2018-12-16T11:16:51.273Z,11.67
2018-12-16T11:19:19.696Z,10.80
2018-12-16T11:21:47.958Z,8.70
2018-12-16T11:24:16.210Z,10.33
2018-12-16T11:26:44.575Z,12.70
2018-12-16T11:29:13.201Z,7.83
2018-12-16T11:31:41.403Z,7.90
2018-12-16T11:34:09.602Z,8.60
2018-12-16T11:36:37.935Z,6.33
2018-12-16T11:39:06.962Z,9.10
2018-12-16T11:41:35.276Z,6.53
2018-12-16T11:44:03.654Z,6.13
2018-12-16T11:46:31.895Z,6.10
2018-12-16T11:49:00.099Z,5.57
2018-12-16T11:51:28.466Z,6.60
2018-12-16T11:53:56.683Z,6.33
2018-12-16T11:56:30.412Z,12.07
2018-12-16T11:59:00.762Z,8.07
2018-12-16T12:01:30.153Z,9.30
2018-12-16T12:03:59.805Z,8.00
2018-12-16T12:06:29.436Z,9.53
2018-12-16T12:08:58.197Z,9.90
2018-12-16T12:11:27.097Z,8.67
2018-12-16T12:13:55.441Z,8.00
2018-12-16T12:16:24.467Z,5.63
2018-12-16T12:18:59.920Z,7.37
2018-12-16T12:21:28.327Z,7.97
2018-12-16T12:23:56.741Z,7.27
2018-12-16T12:26:25.107Z,7.97
2018-12-16T12:28:53.340Z,9.97
2018-12-16T12:31:21.657Z,8.23
2018-12-16T12:33:49.928Z,6.03
2018-12-16T12:36:18.247Z,6.77
2018-12-16T12:38:46.417Z,8.27
2018-12-16T12:41:14.661Z,8.30
2018-12-16T12:43:43.091Z,6.90
2018-12-16T12:46:11.340Z,6.27
2018-12-16T12:48:39.516Z,6.37
2018-12-16T12:51:07.769Z,7.47
2018-12-16T12:53:36.024Z,7.47
2018-12-16T12:56:04.379Z,7.97
2018-12-16T12:58:32.670Z,7.37
2018-12-16T13:01:02.859Z,6.60
2018-12-16T13:03:31.151Z,5.00
2018-12-16T13:06:00.818Z,5.53
2018-12-16T13:08:28.980Z,5.30
2018-12-16T13:10:57.323Z,4.43
2018-12-16T13:13:25.483Z,6.00
2018-12-16T13:15:53.746Z,4.60
2018-12-16T13:18:24.702Z,4.30
2018-12-16T13:20:54.032Z,5.97
2018-12-16T13:23:24.330Z,5.50
2018-12-16T13:26:03.296Z,4.23
2018-12-16T13:28:32.552Z,6.87
2018-12-16T13:31:00.910Z,6.40
2018-12-16T13:33:30.073Z,5.47
2018-12-16T13:35:59.331Z,6.47
2018-12-16T13:38:27.602Z,6.63
2018-12-16T13:40:55.983Z,7.37
2018-12-16T13:43:24.203Z,5.00
2018-12-16T13:45:52.510Z,5.37
2018-12-16T13:48:20.691Z,4.27
2018-12-16T13:50:48.942Z,5.90
2018-12-16T13:53:17.288Z,6.40
2018-12-16T13:55:45.445Z,5.07
2018-12-16T13:58:13.751Z,4.93
2018-12-16T14:00:44.891Z,7.73
2018-12-16T14:03:14.402Z,6.70
2018-12-16T14:05:46.626Z,7.67
2018-12-16T14:08:12.811Z,7.37
2018-12-16T14:10:41.066Z,3.80
2018-12-16T14:13:09.307Z,4.40
2018-12-16T14:15:37.487Z,4.40
2018-12-16T14:18:05.712Z,4.97
2018-12-16T14:20:33.903Z,4.33
2018-12-16T14:23:02.206Z,4.63
2018-12-16T14:25:30.391Z,2.70
2018-12-16T14:27:58.643Z,3.33
2018-12-16T14:30:26.903Z,3.67
2018-12-16T14:32:56.162Z,6.10
2018-12-16T14:35:24.432Z,4.53
2018-12-16T14:37:52.787Z,6.90
2018-12-16T14:40:20.949Z,5.60
2018-12-16T14:42:49.248Z,5.40
2018-12-16T14:45:17.487Z,6.40
2018-12-16T14:50:44.407Z,6.03
2018-12-16T14:53:12.776Z,4.10
2018-12-16T14:55:41.384Z,5.27
2018-12-16T14:58:09.645Z,6.10
2018-12-16T15:00:38.048Z,4.77
2018-12-16T15:03:06.406Z,5.00
2018-12-16T15:05:34.586Z,5.73
2018-12-16T15:08:02.861Z,5.50
2018-12-16T15:10:31.203Z,6.00
2018-12-16T15:12:59.585Z,4.20
2018-12-16T15:15:28.166Z,3.90
2018-12-16T15:17:56.449Z,6.37
2018-12-16T15:20:24.739Z,5.13
2018-12-16T15:22:53.384Z,3.23
2018-12-16T15:25:21.571Z,2.60
2018-12-16T15:27:51.306Z,2.20
2018-12-16T15:30:21.748Z,5.43
2018-12-16T15:32:51.054Z,4.63
2018-12-16T15:35:19.254Z,3.53
2018-12-16T15:37:47.588Z,6.20
2018-12-16T15:40:16.085Z,6.33
2018-12-16T15:42:44.339Z,7.77
2018-12-16T15:45:14.228Z,5.17
2018-12-16T15:47:44.166Z,3.00
2018-12-16T15:50:13.314Z,5.00
2018-12-16T15:52:41.626Z,4.27
2018-12-16T15:55:10.788Z,4.03
2018-12-16T15:57:40.025Z,3.10
2018-12-16T16:00:09.380Z,5.97
2018-12-16T16:02:37.765Z,5.50
2018-12-16T16:05:06.360Z,4.00
2018-12-16T16:07:34.969Z,5.23
2018-12-16T16:10:04.790Z,7.43
2018-12-16T16:12:33.047Z,7.27
2018-12-16T16:15:01.227Z,4.53
2018-12-16T16:17:30.498Z,6.20
2018-12-16T16:19:58.686Z,5.40
2018-12-16T16:22:27.024Z,4.53
2018-12-16T16:24:55.189Z,3.93
2018-12-16T16:27:23.449Z,4.90
2018-12-16T16:29:51.629Z,5.57
2018-12-16T16:32:19.902Z,5.37
2018-12-16T16:34:48.092Z,6.33
2018-12-16T16:37:16.355Z,6.63
2018-12-16T16:39:44.614Z,4.50
2018-12-16T16:42:12.894Z,5.70
2018-12-16T16:44:41.163Z,4.60
2018-12-16T16:47:09.434Z,5.97
2018-12-16T16:49:37.695Z,7.60
2018-12-16T16:52:06.901Z,5.73
2018-12-16T16:54:36.189Z,6.07
2018-12-16T16:57:04.686Z,6.73
2018-12-16T16:59:36.296Z,9.87
2018-12-16T17:02:06.821Z,7.67
2018-12-16T17:04:36.064Z,7.40
2018-12-16T17:07:05.658Z,6.37
2018-12-16T17:09:37.976Z,4.20
2018-12-16T17:12:07.631Z,2.63
2018-12-16T17:14:35.903Z,3.13
2018-12-16T17:17:04.390Z,2.40
2018-12-16T17:19:32.633Z,2.57
2018-12-16T17:22:00.983Z,6.53
2018-12-16T17:24:29.252Z,2.63
2018-12-16T17:26:57.435Z,2.10
2018-12-16T17:29:25.675Z,3.70
2018-12-16T17:31:53.842Z,2.10
2018-12-16T17:34:22.198Z,2.87
2018-12-16T17:36:50.383Z,3.37
2018-12-16T17:39:18.646Z,4.93
2018-12-16T17:41:46.855Z,4.57
2018-12-16T17:44:15.219Z,3.73
2018-12-16T17:46:43.403Z,4.80
2018-12-16T17:49:11.706Z,9.33
2018-12-16T17:51:39.917Z,11.00
2018-12-16T17:54:08.147Z,10.23
2018-12-16T17:56:37.177Z,6.43
2018-12-16T17:59:05.754Z,6.50
2018-12-16T18:01:34.170Z,7.97
2018-12-16T18:04:04.387Z,5.73
2018-12-16T18:06:32.588Z,5.83
2018-12-16T18:09:00.836Z,7.43
2018-12-16T18:11:29.241Z,5.43
2018-12-16T18:13:57.961Z,6.67
2018-12-16T18:16:27.543Z,6.80
2018-12-16T18:18:56.599Z,8.80
2018-12-16T18:21:24.851Z,8.93
2018-12-16T18:23:53.611Z,6.00
2018-12-16T18:26:22.585Z,3.80
2018-12-16T18:28:51.758Z,4.43
2018-12-16T18:31:21.664Z,5.30
2018-12-16T18:33:49.944Z,2.83
2018-12-16T18:36:18.508Z,6.83
2018-12-16T18:38:46.817Z,6.27
2018-12-16T18:41:15.002Z,6.10
2018-12-16T18:43:43.466Z,4.77
2018-12-16T18:46:11.763Z,6.33
2018-12-16T18:48:40.019Z,5.40
2018-12-16T18:51:08.201Z,5.47
2018-12-16T18:53:36.946Z,3.03
2018-12-16T18:56:05.749Z,4.37
2018-12-16T18:58:34.598Z,5.27
2018-12-16T19:01:03.538Z,3.83
2018-12-16T19:03:32.730Z,4.07
2018-12-16T19:06:01.175Z,3.50
2018-12-16T19:08:30.039Z,3.83
2018-12-16T19:10:58.743Z,3.73
2018-12-16T19:13:28.446Z,5.70
2018-12-16T19:15:57.314Z,3.00
2018-12-16T19:18:27.216Z,4.13
2018-12-16T19:20:56.030Z,4.53
2018-12-16T19:23:24.735Z,3.10
2018-12-16T19:25:53.195Z,9.43
2018-12-16T19:28:22.317Z,8.17
2018-12-16T19:30:51.231Z,5.83
2018-12-16T19:33:19.503Z,4.07
2018-12-16T19:35:48.100Z,3.67
2018-12-16T19:38:16.331Z,5.30
2018-12-16T19:40:44.507Z,3.50
2018-12-16T19:43:14.512Z,3.60
2018-12-16T19:45:43.965Z,4.50
2018-12-16T19:48:14.116Z,4.00
2018-12-16T19:50:42.450Z,4.47
2018-12-16T19:53:11.726Z,7.10
2018-12-16T19:55:40.871Z,5.87
2018-12-16T19:58:09.854Z,5.50
2018-12-16T20:00:40.242Z,6.37
2018-12-16T20:03:08.908Z,6.13
2018-12-16T20:05:42.390Z,5.80
2018-12-16T20:08:10.611Z,5.03
2018-12-16T20:10:40.953Z,3.23
2018-12-16T20:13:09.143Z,5.53
2018-12-16T20:15:39.297Z,5.13
2018-12-16T20:18:07.732Z,7.40
2018-12-16T20:20:36.867Z,4.93
2018-12-16T20:23:05.079Z,6.23
2018-12-16T20:25:34.295Z,4.03
2018-12-16T20:28:03.631Z,4.93
2018-12-16T20:30:33.070Z,5.10
2018-12-16T20:33:02.138Z,4.73
2018-12-16T20:35:30.486Z,4.77
2018-12-16T20:37:59.788Z,6.27
2018-12-16T20:40:28.913Z,3.57
2018-12-16T20:42:59.335Z,3.97
2018-12-16T20:45:28.664Z,5.33
2018-12-16T20:47:57.670Z,2.97
2018-12-16T20:50:26.943Z,3.77
2018-12-16T20:52:56.487Z,4.00
2018-12-16T20:55:24.867Z,3.53
2018-12-16T20:57:53.342Z,3.27
2018-12-16T21:00:22.713Z,5.07
2018-12-16T21:02:52.042Z,4.47
2018-12-16T21:05:21.352Z,3.10
2018-12-16T21:07:50.433Z,3.40
2018-12-16T21:10:19.801Z,4.87
2018-12-16T21:12:53.879Z,2.90
2018-12-16T21:15:29.164Z,2.93
2018-12-16T21:18:03.897Z,3.53
2018-12-16T21:20:33.079Z,2.33
2018-12-16T21:23:02.210Z,2.33
2018-12-16T21:25:31.636Z,3.37
2018-12-16T21:28:00.191Z,2.60
2018-12-16T21:30:29.514Z,2.80
2018-12-16T21:32:59.138Z,2.73
2018-12-16T21:35:29.453Z,2.17
2018-12-16T21:37:58.737Z,4.77
2018-12-16T21:40:29.472Z,2.60
2018-12-16T21:42:59.388Z,3.37
2018-12-16T21:45:28.673Z,3.60
2018-12-16T21:47:57.969Z,1.90
2018-12-16T21:50:27.472Z,2.50
2018-12-16T21:52:55.854Z,1.73
2018-12-16T21:55:24.078Z,5.47
2018-12-16T21:57:52.283Z,2.10
2018-12-16T22:00:20.506Z,1.97
2018-12-16T22:02:48.787Z,1.57
2018-12-16T22:05:17.065Z,1.53
2018-12-16T22:07:45.919Z,1.93
2018-12-16T22:10:14.350Z,2.77
2018-12-16T22:12:42.532Z,2.10
2018-12-16T22:15:10.808Z,1.97
2018-12-16T22:17:38.975Z,2.20
2018-12-16T22:20:07.350Z,4.07
2018-12-16T22:22:35.511Z,5.50
2018-12-16T22:25:03.922Z,3.10
2018-12-16T22:27:32.310Z,2.73
2018-12-16T22:30:00.509Z,4.63
2018-12-16T22:32:28.683Z,4.03
2018-12-16T22:34:56.914Z,3.70
2018-12-16T22:37:25.097Z,4.27
2018-12-16T22:39:53.278Z,4.43
2018-12-16T22:42:21.556Z,2.77
2018-12-16T22:44:49.754Z,5.03
2018-12-16T22:47:17.959Z,3.07
2018-12-16T22:49:46.166Z,3.37
2018-12-16T22:52:14.461Z,3.50
2018-12-16T22:54:42.702Z,3.40
2018-12-16T22:57:10.895Z,3.13
2018-12-16T22:59:39.075Z,2.97
2018-12-16T23:02:07.302Z,2.50
2018-12-16T23:04:35.476Z,3.17
2018-12-16T23:07:03.783Z,2.20
2018-12-16T23:09:32.188Z,3.23
2018-12-16T23:12:00.372Z,3.80
2018-12-16T23:14:28.536Z,2.27
2018-12-16T23:16:56.758Z,2.33
2018-12-16T23:19:26.948Z,2.90
2018-12-16T23:21:55.383Z,2.47
2018-12-16T23:24:24.655Z,2.63
2018-12-16T23:26:52.855Z,3.23
2018-12-16T23:29:21.039Z,2.03
2018-12-16T23:31:49.238Z,1.30
2018-12-16T23:34:17.402Z,2.33
2018-12-16T23:36:45.594Z,2.30
2018-12-16T23:39:13.794Z,1.57
2018-12-16T23:41:41.986Z,1.67
2018-12-16T23:44:10.144Z,1.30
2018-12-16T23:46:38.335Z,2.80
2018-12-16T23:49:06.526Z,1.17
2018-12-16T23:51:34.812Z,1.73
2018-12-16T23:54:03.070Z,1.60
2018-12-16T23:56:31.275Z,3.73
2018-12-16T23:58:59.455Z,3.57
